sensor_id;sensor_type;location;lat;lon;timestamp;temperature;humidity
25536;DHT22;13431;51.352;6.412;2022-09-16T00:00:56;12.10;99.90
25536;DHT22;13431;51.352;6.412;2022-09-16T00:03:24;12.00;99.90
25536;DHT22;13431;51.352;6.412;2022-09-16T00:05:52;11.70;99.90
25536;DHT22;13431;51.352;6.412;2022-09-16T00:08:21;11.50;99.90
25536;DHT22;13431;51.352;6.412;2022-09-16T00:10:49;11.40;99.90
25536;DHT22;13431;51.352;6.412;2022-09-16T00:13:19;11.30;99.90
25536;DHT22;13431;51.352;6.412;2022-09-16T00:15:49;11.10;99.90
25536;DHT22;13431;51.352;6.412;2022-09-16T00:18:19;11.10;99.90
25536;DHT22;13431;51.352;6.412;2022-09-16T00:20:49;11.00;99.90
25536;DHT22;13431;51.352;6.412;2022-09-16T00:23:17;11.00;99.90
25536;DHT22;13431;51.352;6.412;2022-09-16T00:25:54;11.00;99.90
25536;DHT22;13431;51.352;6.412;2022-09-16T00:28:22;11.00;99.90
25536;DHT22;13431;51.352;6.412;2022-09-16T00:30:50;11.00;99.90
25536;DHT22;13431;51.352;6.412;2022-09-16T00:33:18;10.90;99.90
25536;DHT22;13431;51.352;6.412;2022-09-16T00:35:46;10.90;99.90
25536;DHT22;13431;51.352;6.412;2022-09-16T00:38:14;10.90;99.90
25536;DHT22;13431;51.352;6.412;2022-09-16T00:40:46;10.90;99.90
25536;DHT22;13431;51.352;6.412;2022-09-16T00:43:15;10.90;99.90
25536;DHT22;13431;51.352;6.412;2022-09-16T00:45:46;10.90;99.90
25536;DHT22;13431;51.352;6.412;2022-09-16T00:48:21;10.90;99.90
25536;DHT22;13431;51.352;6.412;2022-09-16T00:50:53;11.10;99.90
25536;DHT22;13431;51.352;6.412;2022-09-16T00:53:46;11.30;99.90
25536;DHT22;13431;51.352;6.412;2022-09-16T00:56:17;11.50;99.90
25536;DHT22;13431;51.352;6.412;2022-09-16T00:58:59;11.60;99.90
25536;DHT22;13431;51.352;6.412;2022-09-16T01:01:31;11.70;99.90
25536;DHT22;13431;51.352;6.412;2022-09-16T01:04:03;11.80;99.90
25536;DHT22;13431;51.352;6.412;2022-09-16T01:06:37;11.80;99.90
25536;DHT22;13431;51.352;6.412;2022-09-16T01:09:06;11.90;99.90
25536;DHT22;13431;51.352;6.412;2022-09-16T01:11:33;11.90;99.90
25536;DHT22;13431;51.352;6.412;2022-09-16T01:14:01;11.90;99.90
25536;DHT22;13431;51.352;6.412;2022-09-16T01:16:54;11.90;99.90
25536;DHT22;13431;51.352;6.412;2022-09-16T01:19:50;11.90;99.90
25536;DHT22;13431;51.352;6.412;2022-09-16T01:45:38;12.00;99.90
25536;DHT22;13431;51.352;6.412;2022-09-16T01:48:17;12.00;99.90
25536;DHT22;13431;51.352;6.412;2022-09-16T01:51:06;12.00;99.90
25536;DHT22;13431;51.352;6.412;2022-09-16T01:53:43;11.90;99.90
25536;DHT22;13431;51.352;6.412;2022-09-16T01:56:21;11.90;99.90
25536;DHT22;13431;51.352;6.412;2022-09-16T01:59:55;11.80;99.90
25536;DHT22;13431;51.352;6.412;2022-09-16T02:02:04;11.80;99.90
25536;DHT22;13431;51.352;6.412;2022-09-16T02:04:38;11.80;99.90
25536;DHT22;13431;51.352;6.412;2022-09-16T02:07:09;11.70;99.90
25536;DHT22;13431;51.352;6.412;2022-09-16T02:09:40;11.70;99.90
25536;DHT22;13431;51.352;6.412;2022-09-16T02:12:13;11.60;99.90
25536;DHT22;13431;51.352;6.412;2022-09-16T02:14:44;11.60;99.90
25536;DHT22;13431;51.352;6.412;2022-09-16T02:17:14;11.50;99.90
25536;DHT22;13431;51.352;6.412;2022-09-16T02:19:59;11.60;99.90
25536;DHT22;13431;51.352;6.412;2022-09-16T02:23:08;11.50;99.90
25536;DHT22;13431;51.352;6.412;2022-09-16T02:25:26;11.50;99.90
25536;DHT22;13431;51.352;6.412;2022-09-16T02:27:55;11.40;99.90
25536;DHT22;13431;51.352;6.412;2022-09-16T02:30:23;11.30;99.90
25536;DHT22;13431;51.352;6.412;2022-09-16T02:32:58;11.10;99.90
25536;DHT22;13431;51.352;6.412;2022-09-16T02:35:27;11.10;99.90
25536;DHT22;13431;51.352;6.412;2022-09-16T02:38:08;11.10;99.90
25536;DHT22;13431;51.352;6.412;2022-09-16T02:40:43;11.00;99.90
25536;DHT22;13431;51.352;6.412;2022-09-16T02:43:12;11.20;99.90
25536;DHT22;13431;51.352;6.412;2022-09-16T02:48:55;11.40;99.90
25536;DHT22;13431;51.352;6.412;2022-09-16T02:56:55;11.10;99.90
25536;DHT22;13431;51.352;6.412;2022-09-16T02:59:23;11.00;99.90
25536;DHT22;13431;51.352;6.412;2022-09-16T03:01:54;10.80;99.90
25536;DHT22;13431;51.352;6.412;2022-09-16T03:04:21;10.70;99.90
25536;DHT22;13431;51.352;6.412;2022-09-16T03:06:49;10.60;99.90
25536;DHT22;13431;51.352;6.412;2022-09-16T03:09:16;10.60;99.90
25536;DHT22;13431;51.352;6.412;2022-09-16T03:12:12;10.60;99.90
25536;DHT22;13431;51.352;6.412;2022-09-16T03:23:54;10.30;99.90
25536;DHT22;13431;51.352;6.412;2022-09-16T03:26:01;10.50;99.90
25536;DHT22;13431;51.352;6.412;2022-09-16T03:28:36;10.70;99.90
25536;DHT22;13431;51.352;6.412;2022-09-16T03:31:17;10.80;99.90
25536;DHT22;13431;51.352;6.412;2022-09-16T03:33:56;11.00;99.90
25536;DHT22;13431;51.352;6.412;2022-09-16T03:36:31;11.10;99.90
25536;DHT22;13431;51.352;6.412;2022-09-16T03:39:02;11.10;99.90
25536;DHT22;13431;51.352;6.412;2022-09-16T03:41:36;11.20;99.90
25536;DHT22;13431;51.352;6.412;2022-09-16T03:44:03;11.20;99.90
25536;DHT22;13431;51.352;6.412;2022-09-16T03:46:31;11.20;99.90
25536;DHT22;13431;51.352;6.412;2022-09-16T03:48:59;11.30;99.90
25536;DHT22;13431;51.352;6.412;2022-09-16T03:51:26;11.50;99.90
25536;DHT22;13431;51.352;6.412;2022-09-16T03:53:54;11.60;99.90
25536;DHT22;13431;51.352;6.412;2022-09-16T03:56:23;11.60;99.90
25536;DHT22;13431;51.352;6.412;2022-09-16T03:58:50;11.70;99.90
25536;DHT22;13431;51.352;6.412;2022-09-16T04:01:18;11.70;99.90
25536;DHT22;13431;51.352;6.412;2022-09-16T04:03:46;11.80;99.90
25536;DHT22;13431;51.352;6.412;2022-09-16T04:06:13;11.70;99.90
25536;DHT22;13431;51.352;6.412;2022-09-16T04:08:41;11.70;99.90
25536;DHT22;13431;51.352;6.412;2022-09-16T04:11:10;11.70;99.90
25536;DHT22;13431;51.352;6.412;2022-09-16T04:13:38;11.60;99.90
25536;DHT22;13431;51.352;6.412;2022-09-16T04:16:05;11.50;99.90
25536;DHT22;13431;51.352;6.412;2022-09-16T04:18:33;11.50;99.90
25536;DHT22;13431;51.352;6.412;2022-09-16T04:21:02;11.40;99.90
25536;DHT22;13431;51.352;6.412;2022-09-16T04:23:33;11.40;99.90
25536;DHT22;13431;51.352;6.412;2022-09-16T04:26:01;11.40;99.90
25536;DHT22;13431;51.352;6.412;2022-09-16T04:28:32;11.40;99.90
25536;DHT22;13431;51.352;6.412;2022-09-16T04:31:01;11.30;99.90
25536;DHT22;13431;51.352;6.412;2022-09-16T04:33:30;11.20;99.90
25536;DHT22;13431;51.352;6.412;2022-09-16T04:36:10;11.10;99.90
25536;DHT22;13431;51.352;6.412;2022-09-16T04:38:42;11.10;99.90
25536;DHT22;13431;51.352;6.412;2022-09-16T04:41:18;11.00;99.90
25536;DHT22;13431;51.352;6.412;2022-09-16T04:43:49;10.90;99.90
25536;DHT22;13431;51.352;6.412;2022-09-16T04:46:22;10.80;99.90
25536;DHT22;13431;51.352;6.412;2022-09-16T04:48:51;10.70;99.90
25536;DHT22;13431;51.352;6.412;2022-09-16T04:51:19;10.70;99.90
25536;DHT22;13431;51.352;6.412;2022-09-16T04:53:48;10.60;99.90
25536;DHT22;13431;51.352;6.412;2022-09-16T04:56:21;10.50;99.90
25536;DHT22;13431;51.352;6.412;2022-09-16T04:58:50;10.40;99.90
25536;DHT22;13431;51.352;6.412;2022-09-16T05:01:23;10.40;99.90
25536;DHT22;13431;51.352;6.412;2022-09-16T05:03:53;10.40;99.90
25536;DHT22;13431;51.352;6.412;2022-09-16T05:06:23;10.50;99.90
25536;DHT22;13431;51.352;6.412;2022-09-16T05:08:51;10.50;99.90
25536;DHT22;13431;51.352;6.412;2022-09-16T05:11:24;10.50;99.90
25536;DHT22;13431;51.352;6.412;2022-09-16T05:13:53;10.50;99.90
25536;DHT22;13431;51.352;6.412;2022-09-16T05:16:22;10.60;99.90
25536;DHT22;13431;51.352;6.412;2022-09-16T05:18:52;10.70;99.90
25536;DHT22;13431;51.352;6.412;2022-09-16T05:21:21;10.70;99.90
25536;DHT22;13431;51.352;6.412;2022-09-16T05:23:48;10.80;99.90
25536;DHT22;13431;51.352;6.412;2022-09-16T05:26:18;10.90;99.90
25536;DHT22;13431;51.352;6.412;2022-09-16T05:28:47;11.00;99.90
25536;DHT22;13431;51.352;6.412;2022-09-16T05:31:24;11.10;99.90
25536;DHT22;13431;51.352;6.412;2022-09-16T05:34:02;11.10;99.90
25536;DHT22;13431;51.352;6.412;2022-09-16T05:36:32;11.10;99.90
25536;DHT22;13431;51.352;6.412;2022-09-16T05:39:00;11.20;99.90
25536;DHT22;13431;51.352;6.412;2022-09-16T05:41:48;11.20;99.90
25536;DHT22;13431;51.352;6.412;2022-09-16T05:44:16;11.30;99.90
25536;DHT22;13431;51.352;6.412;2022-09-16T05:46:43;11.30;99.90
25536;DHT22;13431;51.352;6.412;2022-09-16T05:49:11;11.40;99.90
25536;DHT22;13431;51.352;6.412;2022-09-16T05:51:39;11.40;99.90
25536;DHT22;13431;51.352;6.412;2022-09-16T05:54:07;11.50;99.90
25536;DHT22;13431;51.352;6.412;2022-09-16T05:56:34;11.50;99.90
25536;DHT22;13431;51.352;6.412;2022-09-16T05:59:02;11.50;99.90
25536;DHT22;13431;51.352;6.412;2022-09-16T06:01:31;11.60;99.90
25536;DHT22;13431;51.352;6.412;2022-09-16T06:04:01;11.70;99.90
25536;DHT22;13431;51.352;6.412;2022-09-16T06:09:00;11.80;99.90
25536;DHT22;13431;51.352;6.412;2022-09-16T06:11:27;11.90;99.90
25536;DHT22;13431;51.352;6.412;2022-09-16T06:13:59;12.10;99.90
25536;DHT22;13431;51.352;6.412;2022-09-16T06:16:28;12.20;99.90
25536;DHT22;13431;51.352;6.412;2022-09-16T06:19:01;12.30;99.90
25536;DHT22;13431;51.352;6.412;2022-09-16T06:21:29;12.40;99.90
25536;DHT22;13431;51.352;6.412;2022-09-16T06:23:56;12.40;99.90
25536;DHT22;13431;51.352;6.412;2022-09-16T06:26:25;12.40;99.90
25536;DHT22;13431;51.352;6.412;2022-09-16T06:28:53;12.40;99.90
25536;DHT22;13431;51.352;6.412;2022-09-16T06:31:25;12.30;99.90
25536;DHT22;13431;51.352;6.412;2022-09-16T06:33:54;12.40;99.90
25536;DHT22;13431;51.352;6.412;2022-09-16T06:36:23;12.60;99.90
25536;DHT22;13431;51.352;6.412;2022-09-16T06:38:51;13.00;99.90
25536;DHT22;13431;51.352;6.412;2022-09-16T06:41:19;13.20;99.90
25536;DHT22;13431;51.352;6.412;2022-09-16T06:43:48;13.40;99.90
25536;DHT22;13431;51.352;6.412;2022-09-16T06:46:20;13.50;99.90
25536;DHT22;13431;51.352;6.412;2022-09-16T06:48:50;13.70;99.90
25536;DHT22;13431;51.352;6.412;2022-09-16T06:51:23;13.90;99.90
25536;DHT22;13431;51.352;6.412;2022-09-16T06:53:52;14.10;99.90
25536;DHT22;13431;51.352;6.412;2022-09-16T06:56:20;14.00;99.90
25536;DHT22;13431;51.352;6.412;2022-09-16T06:58:49;14.00;99.90
25536;DHT22;13431;51.352;6.412;2022-09-16T07:01:24;13.90;99.90
25536;DHT22;13431;51.352;6.412;2022-09-16T07:03:53;13.70;99.90
25536;DHT22;13431;51.352;6.412;2022-09-16T07:06:21;13.40;99.90
25536;DHT22;13431;51.352;6.412;2022-09-16T07:09:05;13.20;99.90
25536;DHT22;13431;51.352;6.412;2022-09-16T07:11:32;13.00;99.90
25536;DHT22;13431;51.352;6.412;2022-09-16T07:14:00;12.90;99.90
25536;DHT22;13431;51.352;6.412;2022-09-16T07:16:28;13.60;99.90
25536;DHT22;13431;51.352;6.412;2022-09-16T07:18:57;13.90;99.90
25536;DHT22;13431;51.352;6.412;2022-09-16T07:21:27;14.10;99.90
25536;DHT22;13431;51.352;6.412;2022-09-16T07:23:58;14.10;99.90
25536;DHT22;13431;51.352;6.412;2022-09-16T07:26:28;14.60;99.90
25536;DHT22;13431;51.352;6.412;2022-09-16T07:28:59;15.00;99.90
25536;DHT22;13431;51.352;6.412;2022-09-16T07:31:29;15.10;99.90
25536;DHT22;13431;51.352;6.412;2022-09-16T07:33:57;15.40;99.90
25536;DHT22;13431;51.352;6.412;2022-09-16T07:36:36;15.60;99.90
25536;DHT22;13431;51.352;6.412;2022-09-16T07:39:04;15.50;99.90
25536;DHT22;13431;51.352;6.412;2022-09-16T07:41:34;15.30;99.90
25536;DHT22;13431;51.352;6.412;2022-09-16T07:44:03;15.70;99.90
25536;DHT22;13431;51.352;6.412;2022-09-16T07:46:33;16.70;99.90
25536;DHT22;13431;51.352;6.412;2022-09-16T07:49:02;18.10;99.90
25536;DHT22;13431;51.352;6.412;2022-09-16T07:51:31;20.40;99.90
25536;DHT22;13431;51.352;6.412;2022-09-16T07:54:04;22.80;99.90
25536;DHT22;13431;51.352;6.412;2022-09-16T07:56:35;23.70;99.90
25536;DHT22;13431;51.352;6.412;2022-09-16T07:59:05;23.40;99.90
25536;DHT22;13431;51.352;6.412;2022-09-16T08:01:33;23.10;99.90
25536;DHT22;13431;51.352;6.412;2022-09-16T08:04:01;22.10;99.90
25536;DHT22;13431;51.352;6.412;2022-09-16T08:06:31;24.20;99.90
25536;DHT22;13431;51.352;6.412;2022-09-16T08:08:59;24.60;99.90
25536;DHT22;13431;51.352;6.412;2022-09-16T08:11:47;25.30;99.90
25536;DHT22;13431;51.352;6.412;2022-09-16T08:14:14;24.90;99.90
25536;DHT22;13431;51.352;6.412;2022-09-16T08:16:42;23.90;99.90
25536;DHT22;13431;51.352;6.412;2022-09-16T08:19:09;23.40;99.90
25536;DHT22;13431;51.352;6.412;2022-09-16T08:21:37;23.80;99.90
25536;DHT22;13431;51.352;6.412;2022-09-16T08:24:04;24.80;99.90
25536;DHT22;13431;51.352;6.412;2022-09-16T08:26:32;25.70;99.90
25536;DHT22;13431;51.352;6.412;2022-09-16T08:28:59;25.90;99.90
25536;DHT22;13431;51.352;6.412;2022-09-16T08:31:36;26.70;98.30
25536;DHT22;13431;51.352;6.412;2022-09-16T08:34:04;26.70;97.90
25536;DHT22;13431;51.352;6.412;2022-09-16T08:36:32;26.40;97.50
25536;DHT22;13431;51.352;6.412;2022-09-16T08:39:00;26.20;98.60
25536;DHT22;13431;51.352;6.412;2022-09-16T08:44:39;27.00;96.20
25536;DHT22;13431;51.352;6.412;2022-09-16T08:49:55;28.00;93.80
25536;DHT22;13431;51.352;6.412;2022-09-16T08:52:36;28.90;93.80
25536;DHT22;13431;51.352;6.412;2022-09-16T08:55:26;29.30;91.80
25536;DHT22;13431;51.352;6.412;2022-09-16T08:58:05;30.00;89.10
25536;DHT22;13431;51.352;6.412;2022-09-16T09:00:33;29.80;85.70
25536;DHT22;13431;51.352;6.412;2022-09-16T09:09:03;26.60;92.20
25536;DHT22;13431;51.352;6.412;2022-09-16T09:12:04;26.80;91.70
25536;DHT22;13431;51.352;6.412;2022-09-16T09:14:37;25.00;94.30
25536;DHT22;13431;51.352;6.412;2022-09-16T09:17:33;25.10;93.80
25536;DHT22;13431;51.352;6.412;2022-09-16T09:26:21;24.30;96.60
25536;DHT22;13431;51.352;6.412;2022-09-16T09:40:22;19.20;99.90
25536;DHT22;13431;51.352;6.412;2022-09-16T09:43:17;19.30;99.90
25536;DHT22;13431;51.352;6.412;2022-09-16T09:46:01;19.00;99.90
25536;DHT22;13431;51.352;6.412;2022-09-16T09:48:43;18.00;99.90
25536;DHT22;13431;51.352;6.412;2022-09-16T09:51:32;17.50;99.90
25536;DHT22;13431;51.352;6.412;2022-09-16T09:54:08;17.10;99.90
25536;DHT22;13431;51.352;6.412;2022-09-16T09:56:43;16.80;99.90
25536;DHT22;13431;51.352;6.412;2022-09-16T09:59:24;16.50;99.90
25536;DHT22;13431;51.352;6.412;2022-09-16T10:01:54;16.50;99.90
25536;DHT22;13431;51.352;6.412;2022-09-16T10:04:22;16.20;99.90
25536;DHT22;13431;51.352;6.412;2022-09-16T10:06:53;16.10;99.90
25536;DHT22;13431;51.352;6.412;2022-09-16T10:09:20;19.60;99.90
25536;DHT22;13431;51.352;6.412;2022-09-16T10:11:51;22.00;99.90
25536;DHT22;13431;51.352;6.412;2022-09-16T10:14:33;20.80;99.90
25536;DHT22;13431;51.352;6.412;2022-09-16T10:17:10;20.40;99.90
25536;DHT22;13431;51.352;6.412;2022-09-16T10:19:52;19.60;99.90
25536;DHT22;13431;51.352;6.412;2022-09-16T10:22:29;18.50;99.90
25536;DHT22;13431;51.352;6.412;2022-09-16T10:24:59;18.30;99.90
25536;DHT22;13431;51.352;6.412;2022-09-16T10:30:13;18.30;99.90
25536;DHT22;13431;51.352;6.412;2022-09-16T10:32:54;18.50;99.90
25536;DHT22;13431;51.352;6.412;2022-09-16T10:35:35;18.40;99.90
25536;DHT22;13431;51.352;6.412;2022-09-16T10:38:21;18.20;99.90
25536;DHT22;13431;51.352;6.412;2022-09-16T10:43:55;18.30;99.90
25536;DHT22;13431;51.352;6.412;2022-09-16T10:46:22;18.60;99.90
25536;DHT22;13431;51.352;6.412;2022-09-16T10:48:50;19.10;99.90
25536;DHT22;13431;51.352;6.412;2022-09-16T10:54:03;19.80;99.90
25536;DHT22;13431;51.352;6.412;2022-09-16T10:56:34;19.50;99.90
25536;DHT22;13431;51.352;6.412;2022-09-16T10:59:13;19.20;99.90
25536;DHT22;13431;51.352;6.412;2022-09-16T11:07:29;18.60;99.90
25536;DHT22;13431;51.352;6.412;2022-09-16T11:10:03;18.00;99.90
25536;DHT22;13431;51.352;6.412;2022-09-16T11:12:42;16.60;99.90
25536;DHT22;13431;51.352;6.412;2022-09-16T11:15:27;15.40;99.90
25536;DHT22;13431;51.352;6.412;2022-09-16T11:26:13;11.80;99.90
25536;DHT22;13431;51.352;6.412;2022-09-16T11:28:56;11.70;99.90
25536;DHT22;13431;51.352;6.412;2022-09-16T11:39:56;12.40;99.90
25536;DHT22;13431;51.352;6.412;2022-09-16T11:45:52;13.20;99.90
25536;DHT22;13431;51.352;6.412;2022-09-16T11:48:28;13.60;99.90
25536;DHT22;13431;51.352;6.412;2022-09-16T11:54:45;14.00;99.90
25536;DHT22;13431;51.352;6.412;2022-09-16T11:57:25;14.10;99.90
25536;DHT22;13431;51.352;6.412;2022-09-16T12:00:03;14.10;99.90
25536;DHT22;13431;51.352;6.412;2022-09-16T12:10:42;13.60;99.90
25536;DHT22;13431;51.352;6.412;2022-09-16T12:13:15;13.60;99.90
25536;DHT22;13431;51.352;6.412;2022-09-16T12:15:48;13.50;99.90
25536;DHT22;13431;51.352;6.412;2022-09-16T12:24:10;14.20;99.90
25536;DHT22;13431;51.352;6.412;2022-09-16T12:26:40;14.20;99.90
25536;DHT22;13431;51.352;6.412;2022-09-16T12:29:41;14.30;99.90
25536;DHT22;13431;51.352;6.412;2022-09-16T12:32:19;14.10;99.90
25536;DHT22;13431;51.352;6.412;2022-09-16T12:34:53;14.10;99.90
25536;DHT22;13431;51.352;6.412;2022-09-16T12:37:44;14.10;99.90
25536;DHT22;13431;51.352;6.412;2022-09-16T12:40:37;14.00;99.90
25536;DHT22;13431;51.352;6.412;2022-09-16T12:57:31;14.50;99.90
25536;DHT22;13431;51.352;6.412;2022-09-16T13:00:40;15.00;99.90
25536;DHT22;13431;51.352;6.412;2022-09-16T13:03:25;15.40;99.90
25536;DHT22;13431;51.352;6.412;2022-09-16T13:05:54;15.80;99.90
25536;DHT22;13431;51.352;6.412;2022-09-16T13:08:28;15.50;99.90
25536;DHT22;13431;51.352;6.412;2022-09-16T13:11:02;15.00;99.90
25536;DHT22;13431;51.352;6.412;2022-09-16T13:13:55;14.40;99.90
25536;DHT22;13431;51.352;6.412;2022-09-16T13:16:38;13.90;99.90
25536;DHT22;13431;51.352;6.412;2022-09-16T13:21:42;13.60;99.90
25536;DHT22;13431;51.352;6.412;2022-09-16T13:24:36;13.70;99.90
25536;DHT22;13431;51.352;6.412;2022-09-16T13:27:32;13.70;99.90
25536;DHT22;13431;51.352;6.412;2022-09-16T13:30:11;13.80;99.90
25536;DHT22;13431;51.352;6.412;2022-09-16T13:32:56;13.80;99.90
25536;DHT22;13431;51.352;6.412;2022-09-16T13:37:52;13.90;99.90
25536;DHT22;13431;51.352;6.412;2022-09-16T13:40:26;13.90;99.90
25536;DHT22;13431;51.352;6.412;2022-09-16T13:43:33;13.90;99.90
25536;DHT22;13431;51.352;6.412;2022-09-16T13:46:06;13.90;99.90
25536;DHT22;13431;51.352;6.412;2022-09-16T13:48:57;13.70;99.90
25536;DHT22;13431;51.352;6.412;2022-09-16T13:51:31;13.50;99.90
25536;DHT22;13431;51.352;6.412;2022-09-16T13:54:02;13.30;99.90
25536;DHT22;13431;51.352;6.412;2022-09-16T14:05:35;13.50;99.90
25536;DHT22;13431;51.352;6.412;2022-09-16T14:08:21;13.60;99.90
25536;DHT22;13431;51.352;6.412;2022-09-16T14:11:13;13.60;99.90
25536;DHT22;13431;51.352;6.412;2022-09-16T14:13:47;13.60;99.90
25536;DHT22;13431;51.352;6.412;2022-09-16T14:21:27;13.80;99.90
25536;DHT22;13431;51.352;6.412;2022-09-16T14:23:54;13.80;99.90
25536;DHT22;13431;51.352;6.412;2022-09-16T14:26:32;13.80;99.90
25536;DHT22;13431;51.352;6.412;2022-09-16T14:29:02;13.90;99.90
25536;DHT22;13431;51.352;6.412;2022-09-16T14:31:31;13.80;99.90
25536;DHT22;13431;51.352;6.412;2022-09-16T14:34:02;13.80;99.90
25536;DHT22;13431;51.352;6.412;2022-09-16T14:36:39;13.80;99.90
25536;DHT22;13431;51.352;6.412;2022-09-16T14:41:40;13.70;99.90
25536;DHT22;13431;51.352;6.412;2022-09-16T14:46:55;13.50;99.90
25536;DHT22;13431;51.352;6.412;2022-09-16T14:49:37;13.50;99.90
25536;DHT22;13431;51.352;6.412;2022-09-16T14:52:13;13.40;99.90
25536;DHT22;13431;51.352;6.412;2022-09-16T14:54:43;13.40;99.90
25536;DHT22;13431;51.352;6.412;2022-09-16T14:57:16;13.40;99.90
25536;DHT22;13431;51.352;6.412;2022-09-16T14:59:45;13.50;99.90
25536;DHT22;13431;51.352;6.412;2022-09-16T15:02:40;13.60;99.90
25536;DHT22;13431;51.352;6.412;2022-09-16T15:07:49;13.70;99.90
25536;DHT22;13431;51.352;6.412;2022-09-16T15:10:37;13.70;99.90
25536;DHT22;13431;51.352;6.412;2022-09-16T15:13:21;13.70;99.90
25536;DHT22;13431;51.352;6.412;2022-09-16T15:16:00;13.70;99.90
25536;DHT22;13431;51.352;6.412;2022-09-16T15:18:53;13.60;99.90
25536;DHT22;13431;51.352;6.412;2022-09-16T15:21:27;13.60;99.90
25536;DHT22;13431;51.352;6.412;2022-09-16T15:23:59;13.60;99.90
25536;DHT22;13431;51.352;6.412;2022-09-16T15:26:42;13.60;99.90
25536;DHT22;13431;51.352;6.412;2022-09-16T15:31:45;13.70;99.90
25536;DHT22;13431;51.352;6.412;2022-09-16T15:34:20;13.80;99.90
25536;DHT22;13431;51.352;6.412;2022-09-16T15:36:52;13.90;99.90
25536;DHT22;13431;51.352;6.412;2022-09-16T15:39:30;14.10;99.90
25536;DHT22;13431;51.352;6.412;2022-09-16T15:42:10;14.20;99.90
25536;DHT22;13431;51.352;6.412;2022-09-16T15:44:52;14.00;99.90
25536;DHT22;13431;51.352;6.412;2022-09-16T15:49:59;13.90;99.90
25536;DHT22;13431;51.352;6.412;2022-09-16T15:52:27;13.70;99.90
25536;DHT22;13431;51.352;6.412;2022-09-16T15:55:04;13.60;99.90
25536;DHT22;13431;51.352;6.412;2022-09-16T15:57:39;13.60;99.90
25536;DHT22;13431;51.352;6.412;2022-09-16T16:00:09;13.50;99.90
25536;DHT22;13431;51.352;6.412;2022-09-16T16:02:44;13.40;99.90
25536;DHT22;13431;51.352;6.412;2022-09-16T16:05:19;13.40;99.90
25536;DHT22;13431;51.352;6.412;2022-09-16T16:07:52;13.50;99.90
25536;DHT22;13431;51.352;6.412;2022-09-16T16:10:28;13.50;99.90
25536;DHT22;13431;51.352;6.412;2022-09-16T16:12:58;13.40;99.90
25536;DHT22;13431;51.352;6.412;2022-09-16T16:15:34;13.30;99.90
25536;DHT22;13431;51.352;6.412;2022-09-16T16:18:05;13.30;99.90
25536;DHT22;13431;51.352;6.412;2022-09-16T16:20:35;13.30;99.90
25536;DHT22;13431;51.352;6.412;2022-09-16T16:23:02;13.30;99.90
25536;DHT22;13431;51.352;6.412;2022-09-16T16:25:30;13.30;99.90
25536;DHT22;13431;51.352;6.412;2022-09-16T16:27:57;13.30;99.90
25536;DHT22;13431;51.352;6.412;2022-09-16T16:30:24;13.40;99.90
25536;DHT22;13431;51.352;6.412;2022-09-16T16:32:52;13.30;99.90
25536;DHT22;13431;51.352;6.412;2022-09-16T16:35:19;13.30;99.90
25536;DHT22;13431;51.352;6.412;2022-09-16T16:37:46;13.20;99.90
25536;DHT22;13431;51.352;6.412;2022-09-16T16:40:14;13.10;99.90
25536;DHT22;13431;51.352;6.412;2022-09-16T16:42:42;13.10;99.90
25536;DHT22;13431;51.352;6.412;2022-09-16T16:45:11;13.20;99.90
25536;DHT22;13431;51.352;6.412;2022-09-16T16:47:40;13.20;99.90
25536;DHT22;13431;51.352;6.412;2022-09-16T16:50:09;13.20;99.90
25536;DHT22;13431;51.352;6.412;2022-09-16T16:52:36;13.30;99.90
25536;DHT22;13431;51.352;6.412;2022-09-16T16:55:04;13.20;99.90
25536;DHT22;13431;51.352;6.412;2022-09-16T16:57:32;13.10;99.90
25536;DHT22;13431;51.352;6.412;2022-09-16T16:59:59;13.00;99.90
25536;DHT22;13431;51.352;6.412;2022-09-16T17:02:26;13.00;99.90
25536;DHT22;13431;51.352;6.412;2022-09-16T17:04:54;12.80;99.90
25536;DHT22;13431;51.352;6.412;2022-09-16T17:07:21;12.70;99.90
25536;DHT22;13431;51.352;6.412;2022-09-16T17:09:54;12.60;99.90
25536;DHT22;13431;51.352;6.412;2022-09-16T17:12:28;12.50;99.90
25536;DHT22;13431;51.352;6.412;2022-09-16T17:14:55;12.30;99.90
25536;DHT22;13431;51.352;6.412;2022-09-16T17:17:22;12.40;99.90
25536;DHT22;13431;51.352;6.412;2022-09-16T17:19:57;12.20;99.90
25536;DHT22;13431;51.352;6.412;2022-09-16T17:22:24;12.00;99.90
25536;DHT22;13431;51.352;6.412;2022-09-16T17:24:52;11.90;99.90
25536;DHT22;13431;51.352;6.412;2022-09-16T17:27:19;11.90;99.90
25536;DHT22;13431;51.352;6.412;2022-09-16T17:29:47;11.80;99.90
25536;DHT22;13431;51.352;6.412;2022-09-16T17:32:15;11.60;99.90
25536;DHT22;13431;51.352;6.412;2022-09-16T17:34:42;11.60;99.90
25536;DHT22;13431;51.352;6.412;2022-09-16T17:37:09;11.60;99.90
25536;DHT22;13431;51.352;6.412;2022-09-16T17:39:37;11.50;99.90
25536;DHT22;13431;51.352;6.412;2022-09-16T17:42:04;11.50;99.90
25536;DHT22;13431;51.352;6.412;2022-09-16T17:44:32;11.40;99.90
25536;DHT22;13431;51.352;6.412;2022-09-16T17:46:59;11.40;99.90
25536;DHT22;13431;51.352;6.412;2022-09-16T17:49:27;11.40;99.90
25536;DHT22;13431;51.352;6.412;2022-09-16T17:51:55;11.40;99.90
25536;DHT22;13431;51.352;6.412;2022-09-16T17:54:22;11.60;99.90
25536;DHT22;13431;51.352;6.412;2022-09-16T17:56:49;12.00;99.90
25536;DHT22;13431;51.352;6.412;2022-09-16T17:59:17;12.20;99.90
25536;DHT22;13431;51.352;6.412;2022-09-16T18:01:45;12.30;99.90
25536;DHT22;13431;51.352;6.412;2022-09-16T18:04:12;12.30;99.90
25536;DHT22;13431;51.352;6.412;2022-09-16T18:06:42;12.20;99.90
25536;DHT22;13431;51.352;6.412;2022-09-16T18:09:11;12.30;99.90
25536;DHT22;13431;51.352;6.412;2022-09-16T18:11:39;12.30;99.90
25536;DHT22;13431;51.352;6.412;2022-09-16T18:14:10;12.30;99.90
25536;DHT22;13431;51.352;6.412;2022-09-16T18:16:37;12.20;99.90
25536;DHT22;13431;51.352;6.412;2022-09-16T18:19:05;11.90;99.90
25536;DHT22;13431;51.352;6.412;2022-09-16T18:21:33;11.70;99.90
25536;DHT22;13431;51.352;6.412;2022-09-16T18:24:02;11.60;99.90
25536;DHT22;13431;51.352;6.412;2022-09-16T18:26:30;11.50;99.90
25536;DHT22;13431;51.352;6.412;2022-09-16T18:29:00;11.30;99.90
25536;DHT22;13431;51.352;6.412;2022-09-16T18:31:40;11.20;99.90
25536;DHT22;13431;51.352;6.412;2022-09-16T18:34:08;11.10;99.90
25536;DHT22;13431;51.352;6.412;2022-09-16T18:36:36;11.00;99.90
25536;DHT22;13431;51.352;6.412;2022-09-16T18:39:08;11.10;99.90
25536;DHT22;13431;51.352;6.412;2022-09-16T18:41:38;11.10;99.90
25536;DHT22;13431;51.352;6.412;2022-09-16T18:44:25;10.90;99.90
25536;DHT22;13431;51.352;6.412;2022-09-16T18:46:52;10.90;99.90
25536;DHT22;13431;51.352;6.412;2022-09-16T18:49:20;10.90;99.90
25536;DHT22;13431;51.352;6.412;2022-09-16T18:51:51;10.80;99.90
25536;DHT22;13431;51.352;6.412;2022-09-16T18:54:21;10.70;99.90
25536;DHT22;13431;51.352;6.412;2022-09-16T18:56:52;10.70;99.90